St. Louis, MO

10:03 AM CDT on August 30, 2016 (GMT -0500)
APRSWXNET | | Change Station

Elev 615 ft 38.73 °N, 90.35 °W | Updated 21 minutes ago

Scattered Clouds
Scattered Clouds
86 °F
Feels Like 92 °F
N
0
Wind Variable Wind from SSE
Gusts 3.0 mph

Today
High -- | Low -- °F
--% Chance of Precip.
Yesterday
High -- | Low -- °F
Precip. -- in
Pressure 30.10 in
Visibility 10.0 miles
Clouds Few 4000 ft
Scattered Clouds 25000 ft
Heat Index 92 °F
Dew Point 71 °F
Humidity 62%
Rainfall in
Snow Depth Not available.
6:29 AM 7:33 PM
Waning Crescent, 3% visible
METAR KSTL 301451Z 19003KT 10SM FEW040 SCT250 31/22 A3014 RMK AO2 SLP191 TCU DSNT N T03060217 58001
Pressure 30.10 in
Visibility 10.0 miles
Clouds Few 4000 ft
Scattered Clouds 25000 ft
Heat Index 92 °F
Dew Point 71 °F
Humidity 62%
Rainfall in
Snow Depth Not available.
6:29 AM 7:33 PM
Waning Crescent, 3% visible
METAR KSTL 301451Z 19003KT 10SM FEW040 SCT250 31/22 A3014 RMK AO2 SLP191 TCU DSNT N T03060217 58001

10-Day Weather Forecast

Almanac

Astronomy

Aug. 30, 2016 Rise Set
Actual Time
Civil Twilight
Nautical Twilight
Astronomical Twilight
Moon
Length of Visible Light
Length of Day
Tomorrow will be .
, % of the Moon is Illuminated

Today's Extremes

State Highs State Lows

Community

WunderPhotos

Upload Photos

1,935,853 photos uploaded!

WunderBlog® & News

Nearby

Air Quality

  Air Quality AQ Index Pollutant
Not available.

Snow Depth

Station Depth Elevation

Earthquake Activity

City Distance Mag. Time & Date
Minimum magnitude displayed is 2.5.

Coastal Water Temperatures

Place Temperature

Stations

Nearby Weather Stations

Station Location Temp. Windchill Dew Point Humidity Wind Precip. Elev Updated Type
                   

Watches & Warnings

There are currently no watches in effect.